首页
METAR-TAF:

METAR-TAF

机场 :

路易斯·穆尼奥斯·马林国际机场

圣胡安, 波多黎哥, 美国

纬度: 18-27N, 经度: 066-00W, 海拔: 3米

当前天气观测

该预报发布于1小时和27分钟前的01:56 UTC
风速10节,风向北转西北
温度 26°C
湿度 54%
气压 1016 hPa
能見度: 16.1公里
散云层高于4700英尺

METAR: TJSJ 230156Z 33010KT 10SM SCT047 26/16 A2999 RMK AO2 SLP155 T02560156

时间: 23:23 (03:23 UTC)

预报

该预报发布于4小时和3分钟前的23:20 UTC
预报有效从23日的 00点(UTC)到 23日的 24点(UTC)
风速10节,风向北转西北
能見度: 10公里
散云层高于3000英尺
多云层高于5000英尺
附近有阵雨
从 23日的 0400点(UTC)
风速6节,风向
能見度: 10公里
少量云层高于2500英尺
从 23日的 1400点(UTC)
风速12节,风向北转东北
能見度: 10公里
少量云层高于3500英尺
散云层高于5000英尺
从 23日的 2300点(UTC)
风速8节,风向东北
能見度: 10公里
少量云层高于2500英尺

TAF: TJSJ 222320Z 2300/2324 34010KT P6SM VCSH SCT030 BKN050 FM230400 36006KT P6SM FEW025 FM231400 02012KT P6SM FEW035 SCT050 FM232300 05008KT P6SM FEW025

超过4000个机场的气象观测和天气预报(METAR&TAF报告)。

可查询的气象台以黄色和红色小点在地图上表示。

将鼠标移到小点上方,可查看气象台名称。

然后点击查看天气观测和预报。

如需切换地图:点击带黑十字的绿色按钮放大地图;点击带横线的绿色按钮缩小地图;或者点击绿色箭头查看邻近地区的地图。


METAR-TAF: